Time;durP1;ratioP1;P1;durP2;ratioP2;P2;SDS_P1;SDS_P2;PMS_P1;PMS_P2;Temp;Humidity;BMP_temperature;BMP_pressure;BME280_temperature;BME280_humidity;BME280_pressure;Samples;Min_cycle;Max_cycle;Signal;HPM_P1;HPM_P2
2023/12/05 00:01:40;;;;;;;5.03;0.70;;;;;;;9.17;100.00;95765.19;5132464;27;20926;-57
2023/12/05 00:04:09;;;;;;;1.03;0.60;;;;;;;9.02;100.00;95772.97;5131946;27;20470;-57
2023/12/05 00:06:38;;;;;;;2.50;0.30;;;;;;;8.69;100.00;95771.25;5132436;28;20441;-57
2023/12/05 00:09:06;;;;;;;0.40;0.30;;;;;;;8.60;100.00;95770.09;5132430;27;20466;-57
2023/12/05 00:11:35;;;;;;;1.70;0.40;;;;;;;8.64;100.00;95769.34;5132183;27;20440;-57
2023/12/05 00:14:04;;;;;;;0.50;0.40;;;;;;;8.64;100.00;95773.84;5131752;27;20426;-57
2023/12/05 00:16:32;;;;;;;0.40;0.40;;;;;;;8.50;100.00;95768.09;5132528;28;20435;-57
2023/12/05 00:19:02;;;;;;;0.40;0.30;;;;;;;8.53;100.00;95769.47;5132454;28;20474;-57
2023/12/05 00:21:31;;;;;;;0.50;0.50;;;;;;;8.40;100.00;95767.97;5131693;27;20942;-57
2023/12/05 00:23:59;;;;;;;0.70;0.33;;;;;;;8.45;100.00;95765.41;5132259;28;20434;-57
2023/12/05 00:26:28;;;;;;;0.47;0.47;;;;;;;8.40;100.00;95767.19;5131794;27;20440;-56
2023/12/05 00:28:56;;;;;;;0.50;0.50;;;;;;;8.26;100.00;95759.63;5105641;28;20506;-57
2023/12/05 00:31:25;;;;;;;0.50;0.37;;;;;;;8.43;100.00;95735.00;5131994;27;20438;-56
2023/12/05 00:33:53;;;;;;;0.53;0.53;;;;;;;8.50;100.00;95762.81;5132696;28;20493;-57
2023/12/05 00:36:24;;;;;;;0.60;0.60;;;;;;;7.77;100.00;95670.72;5132085;27;20824;-57
2023/12/05 00:38:52;;;;;;;0.70;0.60;;;;;;;8.49;100.00;95761.25;5131908;28;20470;-57
2023/12/05 00:41:21;;;;;;;0.30;0.20;;;;;;;8.43;100.00;95759.56;5131825;27;20445;-57
2023/12/05 00:43:49;;;;;;;6.90;0.40;;;;;;;8.64;100.00;95758.78;5132339;27;20444;-57
2023/12/05 00:46:18;;;;;;;1.00;1.00;;;;;;;8.54;100.00;95753.38;5131499;27;20434;-57
2023/12/05 00:48:46;;;;;;;0.50;0.40;;;;;;;8.36;100.00;95745.75;5133012;27;20546;-57
2023/12/05 00:51:15;;;;;;;0.40;0.30;;;;;;;8.02;100.00;95691.41;5135350;27;20443;-56
2023/12/05 00:53:48;;;;;;;0.50;0.30;;;;;;;8.72;100.00;95744.34;5135901;27;20988;-56
2023/12/05 00:56:18;;;;;;;0.87;0.87;;;;;;;8.83;100.00;95752.13;5135790;27;20473;-57
2023/12/05 00:58:47;;;;;;;0.33;0.23;;;;;;;8.83;100.00;95752.13;5135548;27;20434;-56
2023/12/05 01:01:16;;;;;;;1.90;0.40;;;;;;;8.89;100.00;95748.50;5135530;27;20433;-56
2023/12/05 01:03:44;;;;;;;0.53;0.50;;;;;;;8.79;100.00;95750.22;5135623;27;20434;-56
2023/12/05 01:06:13;;;;;;;0.40;0.20;;;;;;;8.76;100.00;95740.16;5108771;27;20485;-56
2023/12/05 01:08:42;;;;;;;0.43;0.40;;;;;;;8.45;100.00;95743.50;5134551;27;20476;-55
2023/12/05 01:11:12;;;;;;;0.70;0.40;;;;;;;8.70;100.00;95735.88;5135142;27;20441;-56
2023/12/05 01:13:41;;;;;;;0.40;0.33;;;;;;;8.57;100.00;95736.25;5134725;27;20430;-56
2023/12/05 01:16:11;;;;;;;0.43;0.30;;;;;;;8.62;100.00;95734.47;5135069;27;20827;-56
2023/12/05 01:18:39;;;;;;;0.57;0.57;;;;;;;8.18;100.00;95683.44;5135074;27;20459;-56
2023/12/05 01:21:08;;;;;;;0.87;0.87;;;;;;;8.55;100.00;95719.84;5135064;27;20812;-57
2023/12/05 01:23:37;;;;;;;1.17;0.50;;;;;;;8.72;100.00;95721.38;5135166;27;20438;-57
2023/12/05 01:26:06;;;;;;;1.33;0.50;;;;;;;8.69;100.00;95721.84;5135223;27;20840;-57
2023/12/05 01:28:36;;;;;;;0.40;0.30;;;;;;;8.77;100.00;95721.41;5134934;27;20530;-57
2023/12/05 01:31:05;;;;;;;0.80;0.80;;;;;;;8.48;100.00;95704.16;5135041;27;20434;-57
2023/12/05 01:33:33;;;;;;;0.40;0.30;;;;;;;8.54;100.00;95695.25;5134396;27;20430;-56
2023/12/05 01:36:02;;;;;;;0.40;0.30;;;;;;;8.90;100.00;95705.16;5134671;27;20444;-56
2023/12/05 01:38:31;;;;;;;1.87;0.40;;;;;;;9.17;100.00;95707.00;5134690;27;20434;-57
2023/12/05 01:40:59;;;;;;;0.30;0.30;;;;;;;8.99;100.00;95702.88;5134462;27;20992;-56
2023/12/05 01:43:28;;;;;;;0.50;0.50;;;;;;;9.05;100.00;95706.38;5134602;27;20495;-56
2023/12/05 01:45:59;;;;;;;0.30;0.20;;;;;;;9.32;100.00;95707.13;5134178;27;20434;-56
2023/12/05 01:48:29;;;;;;;0.50;0.30;;;;;;;9.28;100.00;95700.78;5134642;27;20886;-57
2023/12/05 01:50:59;;;;;;;0.30;0.20;;;;;;;9.37;100.00;95678.09;5134456;27;20435;-56
2023/12/05 01:53:27;;;;;;;0.80;0.30;;;;;;;9.30;100.00;95701.31;5135036;27;20499;-56
2023/12/05 01:55:57;;;;;;;0.50;0.40;;;;;;;9.55;100.00;95704.97;5121006;27;20439;-56
2023/12/05 01:58:26;;;;;;;0.73;0.73;;;;;;;8.79;100.00;95700.81;5134775;27;20435;-56
2023/12/05 02:00:55;;;;;;;0.30;0.20;;;;;;;8.60;100.00;95699.53;5133367;27;20943;-56
2023/12/05 02:03:27;;;;;;;0.50;0.40;;;;;;;8.58;100.00;95696.34;5134620;27;20720;-56
2023/12/05 02:05:56;;;;;;;0.40;0.30;;;;;;;8.65;100.00;95675.81;5133750;27;20518;-56
2023/12/05 02:08:27;;;;;;;0.40;0.30;;;;;;;8.50;100.00;95683.56;5134423;27;20435;-56
2023/12/05 02:10:56;;;;;;;0.40;0.30;;;;;;;8.51;100.00;95679.09;5133726;27;20470;-56
2023/12/05 02:13:25;;;;;;;0.87;0.47;;;;;;;8.35;100.00;95678.09;5134039;27;20438;-56
2023/12/05 02:16:04;;;;;;;2.50;0.50;;;;;;;8.32;100.00;95680.47;5133714;27;20434;-58
2023/12/05 02:18:41;;;;;;;0.40;0.30;;;;;;;8.40;100.00;95675.53;5134007;27;20453;-56
2023/12/05 02:21:13;;;;;;;0.40;0.40;;;;;;;8.39;100.00;95667.88;5133030;27;20440;-56
2023/12/05 02:24:16;;;;;;;0.40;0.30;;;;;;;8.47;100.00;95668.25;5127374;27;20454;-57
2023/12/05 02:26:54;;;;;;;0.30;0.20;;;;;;;8.43;100.00;95676.88;5128842;27;20435;-56
2023/12/05 02:29:42;;;;;;;0.40;0.30;;;;;;;8.33;100.00;95682.84;5133709;27;20465;-57
2023/12/05 02:32:10;;;;;;;0.30;0.30;;;;;;;8.27;100.00;95662.72;5133398;27;20488;-57
2023/12/05 02:34:39;;;;;;;0.30;0.20;;;;;;;8.40;100.00;95662.31;5133516;27;20445;-57
2023/12/05 02:37:17;;;;;;;0.37;0.23;;;;;;;8.19;100.00;95661.28;5106719;27;20491;-57
2023/12/05 02:39:55;;;;;;;0.40;0.40;;;;;;;8.26;100.00;95666.38;5133373;27;20438;-57
2023/12/05 02:42:28;;;;;;;0.40;0.40;;;;;;;8.58;100.00;95661.19;5133132;27;20434;-57
2023/12/05 02:45:02;;;;;;;3.00;2.27;;;;;;;8.57;100.00;95668.34;5133279;27;20517;-57
2023/12/05 02:47:33;;;;;;;0.30;0.30;;;;;;;8.68;100.00;95658.66;5133539;27;20442;-57
2023/12/05 02:50:02;;;;;;;2.50;1.23;;;;;;;8.53;100.00;95659.31;5132690;27;20485;-57
2023/12/05 02:52:30;;;;;;;2.57;0.40;;;;;;;8.60;100.00;95659.13;5132983;27;20436;-57
2023/12/05 02:54:59;;;;;;;0.40;0.40;;;;;;;8.42;100.00;95659.44;5133463;27;20434;-57
2023/12/05 02:57:27;;;;;;;0.40;0.30;;;;;;;8.61;100.00;95656.22;5132909;27;20462;-56
2023/12/05 02:59:58;;;;;;;0.30;0.20;;;;;;;8.58;100.00;95662.00;5124635;27;20439;-57
2023/12/05 03:02:27;;;;;;;0.30;0.20;;;;;;;8.84;100.00;95668.34;5128590;27;20473;-57
2023/12/05 03:04:56;;;;;;;0.60;0.30;;;;;;;8.73;100.00;95662.16;5133310;27;20846;-57
2023/12/05 03:07:24;;;;;;;0.30;0.20;;;;;;;8.58;100.00;95666.47;5133015;27;20434;-57
2023/12/05 03:10:11;;;;;;;0.47;0.47;;;;;;;8.78;100.00;95654.28;5132963;27;20470;-57
2023/12/05 03:12:40;;;;;;;0.57;0.40;;;;;;;8.80;100.00;95662.75;5131552;27;20434;-58
2023/12/05 03:15:11;;;;;;;0.30;0.20;;;;;;;8.27;100.00;95639.72;5132401;27;20985;-57
2023/12/05 03:17:39;;;;;;;0.40;0.40;;;;;;;8.65;100.00;95659.19;5132817;27;20450;-56
2023/12/05 03:20:09;;;;;;;0.30;0.20;;;;;;;8.78;100.00;95658.78;5133074;27;20434;-55
2023/12/05 03:22:38;;;;;;;0.43;0.37;;;;;;;8.63;100.00;95661.25;5132480;27;20433;-57
2023/12/05 03:25:07;;;;;;;0.30;0.20;;;;;;;8.97;100.00;95664.50;5132395;27;20431;-57
2023/12/05 03:27:36;;;;;;;0.40;0.30;;;;;;;8.78;100.00;95656.94;5132843;27;20430;-57
2023/12/05 03:30:06;;;;;;;0.30;0.20;;;;;;;8.92;100.00;95654.69;5132913;27;20470;-57
2023/12/05 03:32:36;;;;;;;0.30;0.20;;;;;;;9.12;100.00;95652.22;5132658;27;20462;-57
2023/12/05 03:35:06;;;;;;;0.30;0.20;;;;;;;9.31;100.00;95660.59;5132931;27;20526;-57
2023/12/05 03:37:34;;;;;;;0.40;0.30;;;;;;;9.65;98.24;95653.97;5132904;27;20935;-57
2023/12/05 03:40:04;;;;;;;0.60;0.60;;;;;;;9.73;96.46;95661.44;5131504;27;20439;-57
2023/12/05 03:42:33;;;;;;;0.30;0.20;;;;;;;9.79;94.77;95649.81;5132513;27;20476;-58
2023/12/05 03:45:01;;;;;;;0.30;0.20;;;;;;;9.93;93.39;95666.84;5132357;27;20435;-56
2023/12/05 03:47:30;;;;;;;0.30;0.30;;;;;;;9.94;92.57;95651.75;5132631;27;20930;-58
2023/12/05 03:50:00;;;;;;;0.30;0.20;;;;;;;9.78;93.26;95648.22;5118593;27;20478;-56
2023/12/05 03:52:29;;;;;;;0.40;0.30;;;;;;;9.92;92.89;95661.78;5131746;27;20453;-56
2023/12/05 03:54:57;;;;;;;0.30;0.30;;;;;;;9.80;93.87;95655.91;5132545;27;20442;-57
2023/12/05 03:57:26;;;;;;;0.30;0.20;;;;;;;9.77;94.13;95646.63;5132151;27;20821;-57
2023/12/05 03:59:55;;;;;;;1.40;0.60;;;;;;;9.73;96.52;95656.13;5132524;27;20426;-58
2023/12/05 04:02:23;;;;;;;0.30;0.20;;;;;;;9.24;98.63;95646.75;5131459;27;20438;-57
2023/12/05 04:04:52;;;;;;;0.40;0.30;;;;;;;9.53;98.17;95666.59;5131985;27;20438;-58
2023/12/05 04:07:22;;;;;;;0.70;0.30;;;;;;;9.59;96.34;95663.72;5129378;28;20435;-57
2023/12/05 04:09:50;;;;;;;0.50;0.47;;;;;;;9.71;93.71;95650.31;5121742;28;20439;-57
2023/12/05 04:12:19;;;;;;;0.30;0.20;;;;;;;9.14;95.51;95589.31;5131588;28;20434;-57
2023/12/05 04:14:47;;;;;;;0.40;0.30;;;;;;;9.76;94.29;95655.63;5132271;27;20438;-57
2023/12/05 04:17:16;;;;;;;0.50;0.30;;;;;;;9.67;93.91;95657.16;5131218;27;20442;-57
2023/12/05 04:19:44;;;;;;;0.40;0.40;;;;;;;9.61;94.73;95652.09;5132295;27;20438;-56
2023/12/05 04:22:13;;;;;;;0.30;0.20;;;;;;;9.70;94.27;95656.63;5132247;27;20430;-56
2023/12/05 04:24:43;;;;;;;0.47;0.33;;;;;;;9.51;94.66;95658.88;5135665;27;20438;-57
2023/12/05 04:27:12;;;;;;;0.30;0.20;;;;;;;9.24;95.93;95657.34;5136638;27;20868;-57
2023/12/05 04:29:40;;;;;;;1.17;0.40;;;;;;;9.29;96.90;95660.84;5136282;27;20473;-56
2023/12/05 04:32:09;;;;;;;0.80;0.80;;;;;;;9.17;98.03;95659.41;5136312;27;20556;-57
2023/12/05 04:34:41;;;;;;;0.50;0.30;;;;;;;9.23;99.62;95663.69;5136651;27;20533;-57
2023/12/05 04:37:11;;;;;;;0.40;0.20;;;;;;;9.20;100.00;95661.56;5135817;27;20987;-56
2023/12/05 04:39:40;;;;;;;0.30;0.20;;;;;;;9.05;100.00;95654.28;5135833;27;20501;-57
2023/12/05 04:42:10;;;;;;;0.30;0.20;;;;;;;9.17;100.00;95665.50;5135718;27;20950;-57
2023/12/05 04:44:39;;;;;;;1.80;0.60;;;;;;;9.07;100.00;95667.25;5136025;27;20442;-57
2023/12/05 04:47:08;;;;;;;0.57;0.57;;;;;;;9.11;100.00;95658.56;5136302;27;20498;-56
2023/12/05 04:49:36;;;;;;;0.40;0.30;;;;;;;9.10;100.00;95656.19;5135405;27;20458;-56
2023/12/05 04:52:05;;;;;;;0.60;0.40;;;;;;;9.14;100.00;95652.78;5135100;27;20985;-57
2023/12/05 04:54:33;;;;;;;0.60;0.60;;;;;;;9.13;100.00;95653.84;5134980;27;20446;-56
2023/12/05 04:57:02;;;;;;;0.53;0.40;;;;;;;9.25;100.00;95658.94;5135599;27;20437;-57
2023/12/05 04:59:32;;;;;;;0.30;0.20;;;;;;;9.27;100.00;95655.00;5135675;27;20507;-57
2023/12/05 05:02:00;;;;;;;0.30;0.20;;;;;;;9.33;100.00;95661.94;5135536;27;20859;-57
2023/12/05 05:04:29;;;;;;;0.40;0.40;;;;;;;9.33;100.00;95655.84;5135524;27;20441;-57
2023/12/05 05:06:58;;;;;;;0.50;0.50;;;;;;;9.25;100.00;95662.41;5135803;27;20491;-57
2023/12/05 05:09:26;;;;;;;0.40;0.30;;;;;;;9.19;100.00;95658.09;5134966;27;20480;-56
2023/12/05 05:11:55;;;;;;;0.40;0.30;;;;;;;9.19;100.00;95649.38;5135625;27;20473;-56
2023/12/05 05:14:23;;;;;;;0.47;0.47;;;;;;;9.15;100.00;95638.50;5108781;27;20438;-57
2023/12/05 05:16:53;;;;;;;0.40;0.30;;;;;;;9.13;100.00;95645.09;5134632;27;20512;-56
2023/12/05 05:19:22;;;;;;;0.40;0.30;;;;;;;9.21;100.00;95634.06;5135477;27;20797;-56
2023/12/05 05:21:51;;;;;;;0.40;0.30;;;;;;;9.21;100.00;95632.19;5135234;27;20438;-56
2023/12/05 05:24:20;;;;;;;0.40;0.40;;;;;;;9.29;100.00;95637.03;5135449;27;20460;-56
2023/12/05 05:26:48;;;;;;;0.40;0.30;;;;;;;9.30;100.00;95635.19;5134725;27;20528;-56
2023/12/05 05:29:17;;;;;;;0.40;0.30;;;;;;;9.38;100.00;95638.16;5134862;27;20517;-57
2023/12/05 05:31:45;;;;;;;0.40;0.30;;;;;;;9.46;100.00;95635.03;5134051;27;20478;-56
2023/12/05 05:34:15;;;;;;;0.50;0.30;;;;;;;9.63;100.00;95639.38;5133276;27;20969;-57
2023/12/05 05:36:44;;;;;;;0.30;0.30;;;;;;;9.66;100.00;95634.41;5134896;27;20516;-57
2023/12/05 05:39:12;;;;;;;0.40;0.30;;;;;;;9.76;100.00;95625.72;5135029;27;20430;-57
2023/12/05 05:41:41;;;;;;;2.10;0.60;;;;;;;9.69;100.00;95631.22;5134338;27;20446;-57
2023/12/05 05:44:10;;;;;;;0.50;0.40;;;;;;;9.68;100.00;95629.63;5134516;27;20462;-57
2023/12/05 05:46:38;;;;;;;4.40;0.90;;;;;;;9.64;100.00;95633.06;5134500;27;20466;-57
2023/12/05 05:49:07;;;;;;;0.43;0.40;;;;;;;9.52;100.00;95630.59;5134412;27;20478;-57
2023/12/05 05:51:37;;;;;;;0.70;0.60;;;;;;;9.63;100.00;95634.91;5120467;27;20481;-57
2023/12/05 05:54:06;;;;;;;0.87;0.87;;;;;;;9.57;100.00;95630.63;5134495;27;20574;-57
2023/12/05 05:56:39;;;;;;;0.47;0.37;;;;;;;9.33;100.00;95629.41;5107320;27;20434;-56
2023/12/05 05:59:08;;;;;;;0.40;0.30;;;;;;;9.58;100.00;95632.22;5134646;27;20456;-56
2023/12/05 06:01:36;;;;;;;0.60;0.60;;;;;;;9.40;100.00;95624.69;5134465;27;20938;-56
2023/12/05 06:04:05;;;;;;;1.17;0.50;;;;;;;9.33;100.00;95624.91;5121290;27;20442;-56
2023/12/05 06:06:34;;;;;;;1.20;0.77;;;;;;;9.19;100.00;95628.22;5134046;27;20441;-57
2023/12/05 06:09:05;;;;;;;0.60;0.50;;;;;;;9.09;100.00;95634.22;5133972;27;20934;-57
2023/12/05 06:11:34;;;;;;;1.67;1.57;;;;;;;9.04;100.00;95626.25;5134689;27;20516;-57
2023/12/05 06:14:03;;;;;;;0.90;0.70;;;;;;;8.89;100.00;95631.41;5134373;27;20437;-57
2023/12/05 06:16:31;;;;;;;0.30;0.20;;;;;;;9.06;100.00;95631.31;5134490;27;20430;-57
2023/12/05 06:19:00;;;;;;;1.03;1.03;;;;;;;9.24;100.00;95636.19;5133841;27;20525;-57
2023/12/05 06:21:29;;;;;;;0.50;0.47;;;;;;;9.11;100.00;95615.47;5134548;27;20817;-57
2023/12/05 06:23:58;;;;;;;0.50;0.50;;;;;;;8.99;100.00;95617.47;5134404;27;20434;-57
2023/12/05 06:26:29;;;;;;;0.93;0.93;;;;;;;8.74;100.00;95633.91;5133980;27;20438;-56
2023/12/05 06:28:57;;;;;;;0.67;0.67;;;;;;;8.70;100.00;95633.59;5133830;27;20961;-57
2023/12/05 06:31:26;;;;;;;0.40;0.30;;;;;;;8.88;100.00;95641.16;5134157;27;20472;-57
2023/12/05 06:33:55;;;;;;;0.40;0.30;;;;;;;9.21;100.00;95636.72;5133937;27;20434;-55
2023/12/05 06:36:23;;;;;;;0.40;0.30;;;;;;;9.34;100.00;95637.06;5133239;27;20434;-55
2023/12/05 06:38:52;;;;;;;0.80;0.80;;;;;;;9.25;100.00;95641.25;5134057;27;20643;-57
2023/12/05 06:41:20;;;;;;;0.57;0.30;;;;;;;9.27;100.00;95641.78;5133822;27;20431;-56
2023/12/05 06:43:51;;;;;;;0.90;0.90;;;;;;;9.19;100.00;95642.25;5133932;27;20446;-57
2023/12/05 06:46:19;;;;;;;0.30;0.20;;;;;;;9.08;100.00;95642.41;5133693;27;20974;-57
2023/12/05 06:48:48;;;;;;;0.40;0.30;;;;;;;9.00;100.00;95641.03;5133772;27;20828;-57
2023/12/05 06:51:20;;;;;;;1.60;0.20;;;;;;;9.21;100.00;95645.41;5133599;27;20522;-57
2023/12/05 06:53:48;;;;;;;0.30;0.20;;;;;;;9.35;100.00;95643.16;5132937;27;20446;-57
2023/12/05 06:56:20;;;;;;;0.30;0.30;;;;;;;9.18;100.00;95640.66;5133579;27;20442;-57
2023/12/05 06:58:50;;;;;;;0.40;0.30;;;;;;;9.31;100.00;95647.38;5133196;27;20441;-57
2023/12/05 07:01:19;;;;;;;0.53;0.53;;;;;;;9.52;100.00;95644.63;5133494;27;20422;-57
2023/12/05 07:03:48;;;;;;;0.60;0.40;;;;;;;9.57;100.00;95646.50;5133106;27;20442;-57
2023/12/05 07:06:24;;;;;;;1.07;0.80;;;;;;;9.55;100.00;95640.66;5133067;27;20433;-57
2023/12/05 07:08:53;;;;;;;0.43;0.40;;;;;;;9.71;100.00;95637.06;5132416;27;20592;-57
2023/12/05 07:11:21;;;;;;;0.70;0.70;;;;;;;9.88;100.00;95637.69;5133439;27;20435;-57
2023/12/05 07:13:51;;;;;;;0.73;0.40;;;;;;;9.18;100.00;95590.41;5132700;27;20546;-57
2023/12/05 07:16:20;;;;;;;0.40;0.30;;;;;;;9.74;100.00;95644.47;5132905;27;20513;-57
2023/12/05 07:18:49;;;;;;;2.20;0.60;;;;;;;9.57;100.00;95622.69;5133141;27;20434;-57
2023/12/05 07:21:18;;;;;;;0.30;0.20;;;;;;;9.54;100.00;95631.13;5133598;27;20441;-57
2023/12/05 07:23:47;;;;;;;0.40;0.40;;;;;;;9.56;100.00;95636.97;5132333;27;20488;-57
2023/12/05 07:26:27;;;;;;;0.60;0.40;;;;;;;9.70;100.00;95635.47;5133164;27;20510;-57
2023/12/05 07:28:57;;;;;;;0.80;0.73;;;;;;;9.90;100.00;95646.16;5132446;27;20434;-57
2023/12/05 07:31:26;;;;;;;1.33;0.40;;;;;;;9.99;100.00;95634.03;5132626;27;20426;-56
2023/12/05 07:33:57;;;;;;;0.40;0.30;;;;;;;9.74;99.61;95623.31;5132581;27;20531;-56
2023/12/05 07:36:26;;;;;;;0.60;0.50;;;;;;;9.90;97.16;95640.88;5132499;27;20808;-57
2023/12/05 07:38:55;;;;;;;0.40;0.30;;;;;;;9.84;98.84;95630.53;5132709;27;20443;-57
2023/12/05 07:41:24;;;;;;;0.60;0.60;;;;;;;9.75;97.16;95598.44;5132898;27;20470;-57
2023/12/05 07:43:52;;;;;;;1.00;0.60;;;;;;;10.20;97.30;95619.06;5133253;27;20435;-57
2023/12/05 07:46:22;;;;;;;1.23;1.13;;;;;;;10.40;97.05;95619.13;5131861;27;20439;-56
2023/12/05 07:48:51;;;;;;;0.80;0.63;;;;;;;10.50;94.07;95621.81;5132881;27;20478;-57
2023/12/05 07:51:20;;;;;;;0.37;0.30;;;;;;;10.46;92.71;95622.59;5132454;27;20499;-56
2023/12/05 07:53:50;;;;;;;1.10;1.10;;;;;;;10.19;94.86;95630.72;5132586;27;20529;-56
2023/12/05 07:56:19;;;;;;;0.93;0.50;;;;;;;10.07;94.42;95617.66;5132207;27;20430;-56
2023/12/05 07:58:48;;;;;;;0.50;0.40;;;;;;;10.22;96.38;95630.19;5132327;27;20516;-57
2023/12/05 08:01:16;;;;;;;0.50;0.40;;;;;;;10.24;95.05;95619.34;5132357;27;20495;-57
2023/12/05 08:03:46;;;;;;;2.23;0.30;;;;;;;10.49;96.44;95614.94;5132646;27;20476;-57
2023/12/05 08:06:15;;;;;;;0.50;0.40;;;;;;;10.68;94.48;95616.03;5106042;28;20791;-57
2023/12/05 08:08:44;;;;;;;0.30;0.20;;;;;;;10.49;93.15;95600.88;5132090;27;20454;-57
2023/12/05 08:11:12;;;;;;;0.60;0.50;;;;;;;10.44;97.45;95614.13;5131379;27;20438;-57
2023/12/05 08:13:41;;;;;;;0.93;0.93;;;;;;;10.19;98.53;95614.84;5132141;27;20480;-57
2023/12/05 08:16:10;;;;;;;0.40;0.33;;;;;;;10.39;100.00;95614.91;5132624;27;20434;-57
2023/12/05 08:18:39;;;;;;;0.70;0.70;;;;;;;10.53;97.11;95612.53;5132140;27;20438;-57
2023/12/05 08:21:09;;;;;;;0.70;0.60;;;;;;;10.34;98.41;95625.50;5132445;28;20797;-57
2023/12/05 08:23:38;;;;;;;0.40;0.37;;;;;;;10.27;100.00;95616.97;5132217;27;20427;-57
2023/12/05 08:26:07;;;;;;;0.97;0.97;;;;;;;9.83;100.00;95600.59;5127460;28;20844;-58
2023/12/05 08:28:36;;;;;;;0.50;0.40;;;;;;;10.18;100.00;95611.38;5132368;27;20435;-57
2023/12/05 08:31:06;;;;;;;3.20;0.40;;;;;;;9.92;100.00;95569.94;5131795;27;20504;-57
2023/12/05 08:33:34;;;;;;;0.30;0.30;;;;;;;9.99;100.00;95596.97;5112823;28;20477;-58
2023/12/05 08:36:03;;;;;;;0.40;0.30;;;;;;;10.29;100.00;95600.81;5131820;28;20966;-57
2023/12/05 08:38:33;;;;;;;0.60;0.37;;;;;;;10.11;100.00;95602.84;5132610;27;20439;-58
2023/12/05 08:41:02;;;;;;;1.30;0.50;;;;;;;9.77;100.00;95609.56;5132340;27;20491;-58
2023/12/05 08:43:31;;;;;;;3.90;0.70;;;;;;;9.75;100.00;95595.00;5132407;28;20566;-57
2023/12/05 08:46:00;;;;;;;2.57;0.80;;;;;;;9.79;100.00;95601.38;5131777;27;20442;-57
2023/12/05 08:48:31;;;;;;;0.63;0.63;;;;;;;9.63;100.00;95612.94;5131532;28;21051;-57
2023/12/05 08:50:58;;;;;;;4.30;0.40;;;;;;;9.88;100.00;95605.94;5132280;28;20536;-57
2023/12/05 08:53:27;;;;;;;1.07;0.63;;;;;;;9.86;100.00;95610.69;5131925;28;20947;-57
2023/12/05 08:55:57;;;;;;;0.50;0.30;;;;;;;9.73;100.00;95597.91;5132182;27;20886;-58
2023/12/05 08:58:26;;;;;;;5.43;0.50;;;;;;;9.65;100.00;95601.03;5132585;27;20430;-57
2023/12/05 09:00:55;;;;;;;0.40;0.30;;;;;;;9.64;100.00;95566.91;5131952;27;20954;-58
2023/12/05 09:03:25;;;;;;;0.40;0.20;;;;;;;10.28;100.00;95589.44;5131222;27;20495;-58
2023/12/05 09:05:54;;;;;;;4.73;0.93;;;;;;;10.19;100.00;95591.78;5104702;28;20525;-57
2023/12/05 09:08:24;;;;;;;0.73;0.73;;;;;;;10.26;100.00;95591.53;5132056;27;20434;-57
2023/12/05 09:10:55;;;;;;;1.70;0.87;;;;;;;10.57;100.00;95581.84;5134127;27;20425;-57
2023/12/05 09:13:25;;;;;;;0.60;0.60;;;;;;;10.64;100.00;95567.25;5135164;27;20554;-57
2023/12/05 09:15:54;;;;;;;0.40;0.40;;;;;;;10.38;100.00;95562.16;5135348;27;20446;-56
2023/12/05 09:18:23;;;;;;;0.53;0.40;;;;;;;10.46;100.00;95556.34;5134909;27;20442;-57
2023/12/05 09:20:52;;;;;;;0.60;0.50;;;;;;;10.40;100.00;95576.75;5108637;27;20430;-58
2023/12/05 09:23:21;;;;;;;0.73;0.73;;;;;;;10.27;100.00;95565.88;5135437;27;20501;-58
2023/12/05 09:25:49;;;;;;;0.83;0.83;;;;;;;10.59;100.00;95571.75;5135793;27;20453;-57
2023/12/05 09:28:18;;;;;;;0.70;0.60;;;;;;;10.75;99.75;95563.53;5135273;27;20434;-57
2023/12/05 09:30:48;;;;;;;0.67;0.57;;;;;;;10.92;97.81;95552.72;5134797;27;20441;-57
2023/12/05 09:33:17;;;;;;;0.50;0.50;;;;;;;10.85;98.24;95562.78;5134586;27;20477;-57
2023/12/05 09:35:45;;;;;;;0.47;0.40;;;;;;;10.77;97.99;95555.34;5135148;27;20434;-57
2023/12/05 09:38:14;;;;;;;1.03;0.97;;;;;;;10.78;98.13;95544.47;5134836;27;20439;-57
2023/12/05 09:40:43;;;;;;;0.30;0.20;;;;;;;10.89;97.67;95536.50;5134927;27;20796;-58
2023/12/05 09:43:11;;;;;;;0.60;0.30;;;;;;;11.28;93.84;95532.25;5134707;27;20439;-56
2023/12/05 09:45:42;;;;;;;0.50;0.50;;;;;;;11.44;92.47;95521.34;5135253;27;20473;-58
2023/12/05 09:48:12;;;;;;;0.30;0.20;;;;;;;11.29;89.43;95523.22;5135049;27;20518;-58
2023/12/05 09:50:41;;;;;;;1.13;1.00;;;;;;;11.06;89.36;95519.28;5134574;27;20470;-57
2023/12/05 09:53:11;;;;;;;0.70;0.70;;;;;;;11.18;90.64;95514.47;5134315;27;20465;-58
2023/12/05 09:55:40;;;;;;;3.73;0.50;;;;;;;11.74;89.76;95504.53;5129297;27;20864;-58
2023/12/05 09:58:12;;;;;;;0.70;0.60;;;;;;;11.44;87.93;95500.09;5134383;27;20800;-58
2023/12/05 10:00:40;;;;;;;0.77;0.67;;;;;;;11.04;88.58;95492.22;5134417;27;20435;-58
2023/12/05 10:03:14;;;;;;;0.50;0.50;;;;;;;11.18;91.75;95493.25;5133890;27;20442;-58
2023/12/05 10:05:48;;;;;;;0.70;0.70;;;;;;;11.26;92.88;95494.56;5121767;27;21071;-57
2023/12/05 10:08:17;;;;;;;0.60;0.60;;;;;;;11.57;91.59;95477.50;5134981;27;20861;-58
2023/12/05 10:10:47;;;;;;;0.40;0.37;;;;;;;11.71;89.44;95472.44;5134698;27;20434;-58
2023/12/05 10:13:15;;;;;;;0.60;0.60;;;;;;;11.68;91.33;95476.44;5134338;27;20451;-58
2023/12/05 10:15:44;;;;;;;0.50;0.40;;;;;;;11.27;89.90;95477.59;5134439;27;20438;-58
2023/12/05 10:18:14;;;;;;;2.80;0.60;;;;;;;11.14;91.79;95472.84;5134109;27;20477;-57
2023/12/05 10:20:45;;;;;;;1.13;0.50;;;;;;;10.92;93.07;95465.19;5133403;27;20448;-57
2023/12/05 10:23:14;;;;;;;0.63;0.63;;;;;;;10.90;95.08;95463.88;5133839;27;20442;-57
2023/12/05 10:25:43;;;;;;;0.50;0.40;;;;;;;10.63;95.61;95450.88;5134524;27;20473;-57
2023/12/05 10:28:12;;;;;;;1.03;0.87;;;;;;;10.47;97.29;95444.03;5134134;27;20521;-57
2023/12/05 10:30:41;;;;;;;0.43;0.30;;;;;;;10.68;97.26;95456.19;5133751;27;20438;-56
2023/12/05 10:33:11;;;;;;;0.40;0.40;;;;;;;10.30;97.39;95412.47;5133711;27;20445;-56
2023/12/05 10:35:42;;;;;;;0.80;0.80;;;;;;;10.46;97.51;95447.72;5133888;27;20866;-56
2023/12/05 10:38:12;;;;;;;1.03;1.03;;;;;;;10.37;97.74;95446.66;5134047;27;20810;-57
2023/12/05 10:40:51;;;;;;;0.53;0.40;;;;;;;10.30;98.65;95438.16;5133963;27;20435;-56
2023/12/05 10:43:20;;;;;;;0.80;0.43;;;;;;;9.82;100.00;95426.94;5132987;27;20461;-56
2023/12/05 10:45:49;;;;;;;0.60;0.40;;;;;;;9.58;100.00;95372.91;5134105;27;20469;-56
2023/12/05 10:48:19;;;;;;;5.90;0.57;;;;;;;9.66;100.00;95433.25;5133758;27;20435;-56
2023/12/05 10:50:51;;;;;;;0.80;0.80;;;;;;;9.92;100.00;95421.66;5133298;27;20559;-57
2023/12/05 10:53:20;;;;;;;2.60;0.60;;;;;;;9.89;100.00;95368.47;5133171;27;20430;-56
2023/12/05 10:55:48;;;;;;;1.73;0.63;;;;;;;9.80;100.00;95349.66;5118081;27;20439;-57
2023/12/05 10:58:17;;;;;;;0.80;0.40;;;;;;;10.57;98.75;95422.81;5106952;27;20555;-58
2023/12/05 11:00:48;;;;;;;1.00;0.87;;;;;;;10.74;97.52;95410.88;5133087;27;20446;-57
2023/12/05 11:03:17;;;;;;;0.83;0.83;;;;;;;10.75;95.93;95414.31;5133725;27;20484;-57
2023/12/05 11:05:45;;;;;;;0.90;0.90;;;;;;;10.72;95.63;95394.44;5133509;27;21857;-57
2023/12/05 11:08:15;;;;;;;2.73;1.53;;;;;;;10.55;95.48;95412.47;5133165;27;20435;-57
2023/12/05 11:10:45;;;;;;;0.63;0.63;;;;;;;10.65;96.04;95414.34;5133619;27;20434;-56
2023/12/05 11:13:14;;;;;;;4.20;0.70;;;;;;;10.46;97.22;95392.06;5133266;27;20442;-57
2023/12/05 11:15:45;;;;;;;0.47;0.47;;;;;;;10.69;95.15;95404.78;5132683;27;21046;-58
2023/12/05 11:18:25;;;;;;;1.30;0.93;;;;;;;10.51;94.99;95400.00;5133147;27;20487;-58
2023/12/05 11:21:05;;;;;;;0.50;0.40;;;;;;;10.75;95.69;95409.03;5107444;27;20989;-58
2023/12/05 11:23:59;;;;;;;4.57;0.50;;;;;;;10.62;93.76;95393.66;5132506;27;20438;-58
2023/12/05 11:26:50;;;;;;;1.17;0.63;;;;;;;10.73;95.17;95387.25;5132962;27;20450;-58
2023/12/05 11:29:37;;;;;;;0.50;0.50;;;;;;;10.78;93.88;95387.25;5112982;27;20442;-58
2023/12/05 11:32:14;;;;;;;0.60;0.53;;;;;;;10.43;93.78;95345.69;5121951;27;20446;-58
2023/12/05 11:34:56;;;;;;;0.50;0.40;;;;;;;10.96;92.14;95386.69;5132506;27;20470;-58
2023/12/05 11:37:36;;;;;;;0.73;0.60;;;;;;;11.28;89.27;95375.72;5132872;27;20958;-58
2023/12/05 11:40:07;;;;;;;0.40;0.40;;;;;;;10.84;91.39;95364.97;5132490;27;20466;-57
2023/12/05 11:42:36;;;;;;;1.10;0.70;;;;;;;11.10;89.95;95366.50;5132901;27;20446;-58
2023/12/05 11:45:22;;;;;;;0.50;0.40;;;;;;;11.31;87.91;95369.84;5132695;27;20438;-58
2023/12/05 11:47:52;;;;;;;0.40;0.40;;;;;;;11.14;88.11;95359.56;5132036;27;20446;-58